Terminal Aerodrome Forecast
Issued by NWS Charleston, WV

Current Version | Previous Version | Graphics & Text | Print | Product List | Glossary On
Versions: 1 2 3 4 5 6 7 8 9 10 11 12 13 14 15 16 17 18 19 20 21
000
FTUS41 KRLX 171900 AAA
TAFCRW
TAF AMD
KCRW 171924Z 1719/1818 27008G15KT P6SM SCT010 OVC020
      TEMPO 1719/1720 -SHSN
     FM172000 28008KT P6SM OVC025
     FM180200 27006KT P6SM BKN025
     FM181600 28005KT P6SM SCT025 BKN100=

USA.gov is the U.S. government's official web portal to all federal, state and local government web resources and services.